createdAt,value
2018-12-31T00:00:54.332Z,88.30
2018-12-31T00:01:39.657Z,88.10
2018-12-31T00:02:18.377Z,88.20
2018-12-31T00:02:53.142Z,88.10
2018-12-31T00:03:27.627Z,88.30
2018-12-31T00:04:02.526Z,88.20
2018-12-31T00:04:37.485Z,88.10
2018-12-31T00:05:13.735Z,88.80
2018-12-31T00:05:49.908Z,88.10
2018-12-31T00:06:25.946Z,88.20
2018-12-31T00:07:01.577Z,88.50
2018-12-31T00:07:36.377Z,88.50
2018-12-31T00:08:10.944Z,88.50
2018-12-31T00:08:45.358Z,88.30
2018-12-31T00:09:20.126Z,88.40
2018-12-31T00:09:54.596Z,88.30
2018-12-31T00:10:30.477Z,88.60
2018-12-31T00:11:04.875Z,88.60
2018-12-31T00:11:39.247Z,88.60
2018-12-31T00:12:13.830Z,88.60
2018-12-31T00:12:48.287Z,88.40
2018-12-31T00:13:24.182Z,88.30
2018-12-31T00:13:58.616Z,88.30
2018-12-31T00:14:33.888Z,88.10
2018-12-31T00:15:08.371Z,88.00
2018-12-31T00:15:42.834Z,88.00
2018-12-31T00:16:17.288Z,87.80
2018-12-31T00:16:51.770Z,87.60
2018-12-31T00:17:26.390Z,87.60
2018-12-31T00:18:00.839Z,87.50
2018-12-31T00:18:36.746Z,87.70
2018-12-31T00:19:11.218Z,87.70
2018-12-31T00:19:47.513Z,88.00
2018-12-31T00:20:22.026Z,88.10
2018-12-31T00:20:56.491Z,88.40
2018-12-31T00:21:30.993Z,88.50
2018-12-31T00:22:05.561Z,88.60
2018-12-31T00:22:40.029Z,88.50
2018-12-31T00:23:14.443Z,88.40
2018-12-31T00:23:49.833Z,88.00
2018-12-31T00:24:24.327Z,87.70
2018-12-31T00:25:00.662Z,87.60
2018-12-31T00:25:35.924Z,87.40
2018-12-31T00:26:10.324Z,87.20
2018-12-31T00:26:44.802Z,87.30
2018-12-31T00:27:20.756Z,87.30
2018-12-31T00:27:55.314Z,87.20
2018-12-31T00:28:29.868Z,87.00
2018-12-31T00:29:05.028Z,87.10
2018-12-31T00:29:39.470Z,87.70
2018-12-31T00:30:14.009Z,87.10
2018-12-31T00:30:48.791Z,87.10
2018-12-31T00:31:24.467Z,87.10
2018-12-31T00:31:59.427Z,87.00
2018-12-31T00:32:33.917Z,87.20
2018-12-31T00:33:08.733Z,87.10
2018-12-31T00:33:44.194Z,87.00
2018-12-31T00:34:18.699Z,86.90
2018-12-31T00:34:54.222Z,87.00
2018-12-31T00:35:28.900Z,87.60
2018-12-31T00:36:03.633Z,86.90
2018-12-31T00:36:38.364Z,87.00
2018-12-31T00:37:13.366Z,86.90
2018-12-31T00:37:48.414Z,86.90
2018-12-31T00:38:23.282Z,87.00
2018-12-31T00:38:57.788Z,86.90
2018-12-31T00:39:32.997Z,86.90
2018-12-31T00:40:07.503Z,86.90
2018-12-31T00:40:42.336Z,87.10
2018-12-31T00:41:16.791Z,87.20
2018-12-31T00:41:52.112Z,87.20
2018-12-31T00:42:26.612Z,87.10
2018-12-31T00:43:01.044Z,87.20
2018-12-31T00:43:35.782Z,87.30
2018-12-31T00:44:10.183Z,87.50
2018-12-31T00:44:45.289Z,87.30
2018-12-31T00:45:19.863Z,87.00
2018-12-31T00:45:54.228Z,87.30
2018-12-31T00:46:28.710Z,87.20
2018-12-31T00:47:03.457Z,87.20
2018-12-31T00:47:38.597Z,87.40
2018-12-31T00:48:14.303Z,87.20
2018-12-31T00:48:49.432Z,87.30
2018-12-31T00:49:23.875Z,87.40
2018-12-31T00:49:58.342Z,87.40
2018-12-31T00:50:32.894Z,87.50
2018-12-31T00:51:08.555Z,87.20
2018-12-31T00:51:42.973Z,87.20
2018-12-31T00:52:18.034Z,87.40
2018-12-31T00:52:52.457Z,87.40
2018-12-31T00:53:26.919Z,87.50
2018-12-31T00:54:02.028Z,87.60
2018-12-31T00:54:37.142Z,87.50
2018-12-31T00:55:11.741Z,87.50
2018-12-31T00:55:47.598Z,87.40
2018-12-31T00:56:22.284Z,87.40
2018-12-31T00:56:56.758Z,87.40
2018-12-31T00:57:31.684Z,88.30
2018-12-31T00:58:07.959Z,87.60
2018-12-31T00:58:43.087Z,87.50
2018-12-31T00:59:17.922Z,87.60
2018-12-31T00:59:52.933Z,87.70
2018-12-31T01:00:27.395Z,87.60
2018-12-31T01:01:02.069Z,87.50
2018-12-31T01:01:37.571Z,87.50
2018-12-31T01:02:12.047Z,87.40
2018-12-31T01:02:46.559Z,87.40
2018-12-31T01:03:21.026Z,87.50
2018-12-31T01:03:55.505Z,87.50
2018-12-31T01:04:30.050Z,87.40
2018-12-31T01:05:04.585Z,87.40
2018-12-31T01:05:40.955Z,87.50
2018-12-31T01:06:15.433Z,87.20
2018-12-31T01:06:50.011Z,87.20
2018-12-31T01:07:24.888Z,87.40
2018-12-31T01:07:59.395Z,87.30
2018-12-31T01:08:35.802Z,87.20
2018-12-31T01:09:10.655Z,87.20
2018-12-31T01:09:45.115Z,87.20
2018-12-31T01:10:20.366Z,87.10
2018-12-31T01:10:55.149Z,87.10
2018-12-31T01:11:30.073Z,87.40
2018-12-31T01:12:04.486Z,87.50
2018-12-31T01:12:38.973Z,87.40
2018-12-31T01:13:13.540Z,87.40
2018-12-31T01:13:48.215Z,87.40
2018-12-31T01:14:23.059Z,87.40
2018-12-31T01:14:59.083Z,87.40
2018-12-31T01:15:34.051Z,87.50
2018-12-31T01:16:09.206Z,87.50
2018-12-31T01:16:43.667Z,87.60
2018-12-31T01:17:18.137Z,87.80
2018-12-31T01:17:53.335Z,88.00
2018-12-31T01:18:28.038Z,87.80
2018-12-31T01:19:02.779Z,87.80
2018-12-31T01:19:37.635Z,87.80
2018-12-31T01:20:15.175Z,87.90
2018-12-31T01:20:50.514Z,87.90
2018-12-31T01:21:25.175Z,87.70
2018-12-31T01:21:59.605Z,87.70
2018-12-31T01:22:34.117Z,87.80
2018-12-31T01:23:08.620Z,87.80
2018-12-31T01:23:43.071Z,87.80
2018-12-31T01:24:17.532Z,87.80
2018-12-31T01:24:51.962Z,88.00
2018-12-31T01:25:26.465Z,87.70
2018-12-31T01:26:00.931Z,87.50
2018-12-31T01:26:35.801Z,87.70
2018-12-31T01:27:11.027Z,87.70
2018-12-31T01:27:46.327Z,87.80
2018-12-31T01:28:21.654Z,87.70
2018-12-31T01:28:56.423Z,87.80
2018-12-31T01:29:31.176Z,87.70
2018-12-31T01:30:05.753Z,87.90
2018-12-31T01:30:40.521Z,87.80
2018-12-31T01:31:14.983Z,87.80
2018-12-31T01:31:49.867Z,87.70
2018-12-31T01:32:25.392Z,87.70
2018-12-31T01:33:01.179Z,87.70
2018-12-31T01:33:36.027Z,87.60
2018-12-31T01:34:10.530Z,87.50
2018-12-31T01:34:45.308Z,87.40
2018-12-31T01:35:20.134Z,87.40
2018-12-31T01:35:54.569Z,87.40
2018-12-31T01:36:29.123Z,87.60
2018-12-31T01:37:03.672Z,87.50
2018-12-31T01:37:38.170Z,87.60
2018-12-31T01:38:12.943Z,87.70
2018-12-31T01:38:48.879Z,87.60
2018-12-31T01:39:23.617Z,87.50
2018-12-31T01:39:58.227Z,87.40
2018-12-31T01:40:32.815Z,87.40
2018-12-31T01:41:07.608Z,87.20
2018-12-31T01:41:42.079Z,87.50
2018-12-31T01:42:16.498Z,87.50
2018-12-31T01:42:51.698Z,87.60
2018-12-31T01:43:26.568Z,87.60
2018-12-31T01:44:01.395Z,87.60
2018-12-31T01:44:36.621Z,87.40
2018-12-31T01:45:11.038Z,87.40
2018-12-31T01:45:45.581Z,87.40
2018-12-31T01:46:20.533Z,87.40
2018-12-31T01:46:54.999Z,87.30
2018-12-31T01:47:29.514Z,87.40
2018-12-31T01:48:03.994Z,87.50
2018-12-31T01:48:39.004Z,87.70
2018-12-31T01:49:13.485Z,88.40
2018-12-31T01:49:47.933Z,87.70
2018-12-31T01:50:22.551Z,87.70
2018-12-31T01:50:56.946Z,87.70
2018-12-31T01:51:31.438Z,87.60
2018-12-31T01:52:05.923Z,87.50
2018-12-31T01:52:40.346Z,87.50
2018-12-31T01:53:14.775Z,87.60
2018-12-31T01:53:49.280Z,87.50
2018-12-31T01:54:24.270Z,87.60
2018-12-31T01:54:58.706Z,87.70
2018-12-31T01:55:33.256Z,87.80
2018-12-31T01:56:07.766Z,87.70
2018-12-31T01:56:42.532Z,87.80
2018-12-31T01:57:17.300Z,87.80
2018-12-31T01:57:51.698Z,87.80
2018-12-31T01:58:26.627Z,87.80
2018-12-31T01:59:01.066Z,87.90
2018-12-31T01:59:35.951Z,87.70
2018-12-31T02:00:10.774Z,87.50
2018-12-31T02:00:45.287Z,87.70
2018-12-31T02:01:20.096Z,87.70
2018-12-31T02:01:54.558Z,87.70
2018-12-31T02:02:29.086Z,87.70
2018-12-31T02:03:03.527Z,87.50
2018-12-31T02:03:38.327Z,87.60
2018-12-31T02:04:12.823Z,87.50
2018-12-31T02:04:47.286Z,87.40
2018-12-31T02:05:21.886Z,87.40
2018-12-31T02:05:56.714Z,87.40
2018-12-31T02:06:31.143Z,87.40
2018-12-31T02:07:05.565Z,87.40
2018-12-31T02:07:40.094Z,87.40
2018-12-31T02:08:14.529Z,87.30
2018-12-31T02:08:48.944Z,87.30
2018-12-31T02:09:23.397Z,87.30
2018-12-31T02:09:57.774Z,87.30
2018-12-31T02:10:32.254Z,87.40
2018-12-31T02:11:06.727Z,87.20
2018-12-31T02:11:41.146Z,87.20
2018-12-31T02:12:15.629Z,87.20
2018-12-31T02:12:50.017Z,87.30
2018-12-31T02:13:24.680Z,87.40
2018-12-31T02:13:59.047Z,87.30
2018-12-31T02:14:33.758Z,87.30
2018-12-31T02:15:08.319Z,87.20
2018-12-31T02:15:42.788Z,87.30
2018-12-31T02:16:17.266Z,87.20
2018-12-31T02:16:51.721Z,87.30
2018-12-31T02:17:26.221Z,87.30
2018-12-31T02:18:00.695Z,87.60
2018-12-31T02:18:35.154Z,87.30
2018-12-31T02:19:09.585Z,87.40
2018-12-31T02:19:43.995Z,87.20
2018-12-31T02:20:18.352Z,87.10
2018-12-31T02:20:52.776Z,87.10
2018-12-31T02:21:27.231Z,87.20
2018-12-31T02:22:01.544Z,87.10
2018-12-31T02:22:36.011Z,87.20
2018-12-31T02:23:10.719Z,87.10
2018-12-31T02:23:45.156Z,87.00
2018-12-31T02:24:19.628Z,86.90
2018-12-31T02:24:54.016Z,87.00
2018-12-31T02:25:28.514Z,87.00
2018-12-31T02:26:03.043Z,87.20
2018-12-31T02:26:37.456Z,87.10
2018-12-31T02:27:11.844Z,87.10
2018-12-31T02:27:46.331Z,87.10
2018-12-31T02:28:20.999Z,87.00
2018-12-31T02:28:55.429Z,87.00
2018-12-31T02:29:29.912Z,86.90
2018-12-31T02:30:04.469Z,87.00
2018-12-31T02:30:38.927Z,87.00
2018-12-31T02:31:13.346Z,86.70
2018-12-31T02:31:47.912Z,86.80
2018-12-31T02:32:22.429Z,86.80
2018-12-31T02:32:56.842Z,86.70
2018-12-31T02:33:31.160Z,86.80
2018-12-31T02:34:05.593Z,86.80
2018-12-31T02:34:40.100Z,86.90
2018-12-31T02:35:14.544Z,86.80
2018-12-31T02:35:48.956Z,86.90
2018-12-31T02:36:23.730Z,86.80
2018-12-31T02:36:58.164Z,86.80
2018-12-31T02:37:32.578Z,86.90
2018-12-31T02:38:07.298Z,86.80
2018-12-31T02:38:41.701Z,86.70
2018-12-31T02:39:16.166Z,86.60
2018-12-31T02:39:50.674Z,86.80
2018-12-31T02:40:25.093Z,86.80
2018-12-31T02:40:59.632Z,86.80
2018-12-31T02:41:34.069Z,87.00
2018-12-31T02:42:10.968Z,86.90
2018-12-31T02:42:45.437Z,87.00
2018-12-31T02:43:19.916Z,87.00
2018-12-31T02:43:54.374Z,87.30
2018-12-31T02:44:28.736Z,87.20
2018-12-31T02:45:03.193Z,87.20
2018-12-31T02:45:37.622Z,87.30
2018-12-31T02:46:12.033Z,87.30
2018-12-31T02:46:46.419Z,87.30
2018-12-31T02:47:20.821Z,87.40
2018-12-31T02:47:55.641Z,87.20
2018-12-31T02:48:30.070Z,87.20
2018-12-31T02:49:04.506Z,87.20
2018-12-31T02:49:39.087Z,87.20
2018-12-31T02:50:13.884Z,87.30
2018-12-31T02:50:48.414Z,87.30
2018-12-31T02:51:22.793Z,87.30
2018-12-31T02:51:57.176Z,87.20
2018-12-31T02:52:32.503Z,87.20
2018-12-31T02:53:06.933Z,87.50
2018-12-31T02:53:41.403Z,87.20
2018-12-31T02:54:16.190Z,87.30
2018-12-31T02:54:50.662Z,87.30
2018-12-31T02:55:25.125Z,87.50
2018-12-31T02:55:59.586Z,87.40
2018-12-31T02:56:34.010Z,87.40
2018-12-31T02:57:08.454Z,87.40
2018-12-31T02:57:42.888Z,87.20
2018-12-31T02:58:17.266Z,87.30
2018-12-31T02:58:51.770Z,87.40
2018-12-31T02:59:26.256Z,87.40
2018-12-31T03:00:01.051Z,87.40
2018-12-31T03:00:35.523Z,87.50
2018-12-31T03:01:09.984Z,87.30
2018-12-31T03:01:44.337Z,87.50
2018-12-31T03:02:18.744Z,87.40
2018-12-31T03:02:53.206Z,87.50
2018-12-31T03:03:27.688Z,87.60
2018-12-31T03:04:02.094Z,87.50
2018-12-31T03:04:36.518Z,87.50
2018-12-31T03:05:10.967Z,87.50
2018-12-31T03:05:45.350Z,87.30
2018-12-31T03:06:19.775Z,87.40
2018-12-31T03:06:54.230Z,87.30
2018-12-31T03:07:28.936Z,87.40
2018-12-31T03:08:03.386Z,87.60
2018-12-31T03:08:37.843Z,87.70
2018-12-31T03:09:12.302Z,87.70
2018-12-31T03:09:46.753Z,87.70
2018-12-31T03:10:21.177Z,87.70
2018-12-31T03:10:55.621Z,87.70
2018-12-31T03:11:30.050Z,87.60
2018-12-31T03:12:04.501Z,87.60
2018-12-31T03:12:38.958Z,87.60
2018-12-31T03:13:13.342Z,87.50
2018-12-31T03:13:47.753Z,87.70
2018-12-31T03:14:22.400Z,87.70
2018-12-31T03:14:56.851Z,87.50
2018-12-31T03:15:31.573Z,87.50
2018-12-31T03:16:06.032Z,87.40
2018-12-31T03:16:40.488Z,87.20
2018-12-31T03:17:14.831Z,87.20
2018-12-31T03:17:49.332Z,87.10
2018-12-31T03:18:23.750Z,87.20
2018-12-31T03:18:58.148Z,87.20
2018-12-31T03:19:32.601Z,87.20
2018-12-31T03:20:07.142Z,87.30
2018-12-31T03:20:41.484Z,87.30
2018-12-31T03:21:16.646Z,87.10
2018-12-31T03:21:51.048Z,87.10
2018-12-31T03:22:25.768Z,87.10
2018-12-31T03:23:00.302Z,87.20
2018-12-31T03:23:35.006Z,87.30
2018-12-31T03:24:09.444Z,87.30
2018-12-31T03:24:43.928Z,87.20
2018-12-31T03:25:18.446Z,87.40
2018-12-31T03:25:52.891Z,87.40
2018-12-31T03:26:27.270Z,87.40
2018-12-31T03:27:01.658Z,87.30
2018-12-31T03:27:36.086Z,87.10
2018-12-31T03:28:10.539Z,87.20
2018-12-31T03:28:45.012Z,87.20
2018-12-31T03:29:19.759Z,87.40
2018-12-31T03:29:54.208Z,87.50
2018-12-31T03:30:28.616Z,87.40
2018-12-31T03:31:03.029Z,87.40
2018-12-31T03:31:37.470Z,87.40
2018-12-31T03:32:11.883Z,87.50
2018-12-31T03:32:46.573Z,87.40
2018-12-31T03:33:21.002Z,87.40
2018-12-31T03:33:55.665Z,87.80
2018-12-31T03:34:30.096Z,87.20
2018-12-31T03:35:04.994Z,87.20
2018-12-31T03:35:39.475Z,87.10
2018-12-31T03:36:13.938Z,87.00
2018-12-31T03:36:48.723Z,87.20
2018-12-31T03:37:23.350Z,87.20
2018-12-31T03:37:57.803Z,87.10
2018-12-31T03:38:32.310Z,87.30
2018-12-31T03:39:07.944Z,87.50
2018-12-31T03:39:42.441Z,87.70
2018-12-31T03:40:16.897Z,87.50
2018-12-31T03:40:51.304Z,87.50
2018-12-31T03:41:25.824Z,87.40
2018-12-31T03:42:00.222Z,87.40
2018-12-31T03:42:34.831Z,87.40
2018-12-31T03:43:09.342Z,87.50
2018-12-31T03:43:43.792Z,87.60
2018-12-31T03:44:18.218Z,87.60
2018-12-31T03:44:52.645Z,87.50
2018-12-31T03:45:27.090Z,87.50
2018-12-31T03:46:01.703Z,87.50
2018-12-31T03:46:36.126Z,87.50
2018-12-31T03:47:12.319Z,87.40
2018-12-31T03:47:47.240Z,87.40
2018-12-31T03:48:21.622Z,87.40
2018-12-31T03:48:56.065Z,87.30
2018-12-31T03:49:30.485Z,87.50
2018-12-31T03:50:05.233Z,87.70
2018-12-31T03:50:39.642Z,87.70
2018-12-31T03:51:14.126Z,87.80
2018-12-31T03:51:48.564Z,87.70
2018-12-31T03:52:22.979Z,87.80
2018-12-31T03:52:57.408Z,87.90
2018-12-31T03:53:31.820Z,87.90
2018-12-31T03:54:06.284Z,87.90
2018-12-31T03:54:40.666Z,87.90
2018-12-31T03:55:15.494Z,87.90
2018-12-31T03:55:49.922Z,87.90
2018-12-31T03:56:24.275Z,87.90
2018-12-31T03:56:58.682Z,87.90
2018-12-31T03:57:33.190Z,87.80
2018-12-31T03:58:07.675Z,87.70
2018-12-31T03:58:42.077Z,87.60
2018-12-31T03:59:16.463Z,87.60
2018-12-31T03:59:51.231Z,87.70
2018-12-31T04:00:26.043Z,87.50
2018-12-31T04:01:00.863Z,87.60
2018-12-31T04:01:35.308Z,87.50
2018-12-31T04:02:09.886Z,87.60
2018-12-31T04:02:44.291Z,87.50
2018-12-31T04:03:18.675Z,87.50
2018-12-31T04:03:53.411Z,87.40
2018-12-31T04:04:27.860Z,87.40
2018-12-31T04:05:02.258Z,87.60
2018-12-31T04:05:36.989Z,87.50
2018-12-31T04:06:11.381Z,87.60
2018-12-31T04:06:45.758Z,87.50
2018-12-31T04:07:20.162Z,87.70
2018-12-31T04:07:54.537Z,88.60
2018-12-31T04:08:29.334Z,88.00
2018-12-31T04:09:04.132Z,88.10
2018-12-31T04:09:38.515Z,88.10
2018-12-31T04:10:12.987Z,88.10
2018-12-31T04:10:47.428Z,88.20
2018-12-31T04:11:22.206Z,88.10
2018-12-31T04:11:56.651Z,88.30
2018-12-31T04:12:31.337Z,88.30
2018-12-31T04:13:05.799Z,88.30
2018-12-31T04:13:40.253Z,88.30
2018-12-31T04:14:14.795Z,88.50
2018-12-31T04:14:49.212Z,88.40
2018-12-31T04:15:23.723Z,88.30
2018-12-31T04:15:58.141Z,88.30
2018-12-31T04:16:32.445Z,88.20
2018-12-31T04:17:06.850Z,88.30
2018-12-31T04:17:41.191Z,88.20
2018-12-31T04:18:15.643Z,88.10
2018-12-31T04:18:50.104Z,88.00
2018-12-31T04:19:24.525Z,88.10
2018-12-31T04:19:59.008Z,88.10
2018-12-31T04:20:33.424Z,88.10
2018-12-31T04:21:07.883Z,88.10
2018-12-31T04:21:42.320Z,88.00
2018-12-31T04:22:16.686Z,87.90
2018-12-31T04:22:51.043Z,88.00
2018-12-31T04:23:25.512Z,88.00
2018-12-31T04:23:59.895Z,87.80
2018-12-31T04:24:34.704Z,87.90
2018-12-31T04:25:09.514Z,87.90
2018-12-31T04:25:43.924Z,87.90
2018-12-31T04:26:18.341Z,87.80
2018-12-31T04:26:53.040Z,87.60
2018-12-31T04:27:27.453Z,87.60
2018-12-31T04:28:01.855Z,87.70
2018-12-31T04:28:36.210Z,87.80
2018-12-31T04:29:10.626Z,88.00
2018-12-31T04:29:45.621Z,88.10
2018-12-31T04:30:20.271Z,88.10
2018-12-31T04:30:54.765Z,88.20
2018-12-31T04:31:29.238Z,88.20
2018-12-31T04:32:03.655Z,88.30
2018-12-31T04:32:38.080Z,88.40
2018-12-31T04:33:12.509Z,88.40
2018-12-31T04:33:47.003Z,88.10
2018-12-31T04:34:21.434Z,88.10
2018-12-31T04:34:56.108Z,88.10
2018-12-31T04:35:30.600Z,88.20
2018-12-31T04:36:05.381Z,88.30
2018-12-31T04:36:39.828Z,88.30
2018-12-31T04:37:14.586Z,88.30
2018-12-31T04:37:49.047Z,88.50
2018-12-31T04:38:23.899Z,88.30
2018-12-31T04:38:58.342Z,88.40
2018-12-31T04:39:32.724Z,88.30
2018-12-31T04:40:07.149Z,88.30
2018-12-31T04:40:41.593Z,88.20
2018-12-31T04:41:16.071Z,88.20
2018-12-31T04:41:50.747Z,88.20
2018-12-31T04:42:25.238Z,88.20
2018-12-31T04:42:59.679Z,88.20
2018-12-31T04:43:34.338Z,88.10
2018-12-31T04:44:08.737Z,88.20
2018-12-31T04:44:43.505Z,88.40
2018-12-31T04:45:17.909Z,88.30
2018-12-31T04:45:52.392Z,88.40
2018-12-31T04:46:27.062Z,88.40
2018-12-31T04:47:01.547Z,88.40
2018-12-31T04:47:36.121Z,88.30
2018-12-31T04:48:10.649Z,88.40
2018-12-31T04:48:45.130Z,88.50
2018-12-31T04:49:19.979Z,88.40
2018-12-31T04:49:54.784Z,88.30
2018-12-31T04:50:29.608Z,88.40
2018-12-31T04:51:04.108Z,88.30
2018-12-31T04:51:38.549Z,88.50
2018-12-31T04:52:13.012Z,88.50
2018-12-31T04:52:47.489Z,88.60
2018-12-31T04:53:21.966Z,88.70
2018-12-31T04:53:56.327Z,88.70
2018-12-31T04:54:30.788Z,88.70
2018-12-31T04:55:05.210Z,88.90
2018-12-31T04:55:44.312Z,88.80
2018-12-31T04:56:16.201Z,88.70
2018-12-31T04:56:52.729Z,88.70
2018-12-31T04:57:27.147Z,88.50
2018-12-31T04:58:01.875Z,88.60
2018-12-31T04:58:36.307Z,88.40
2018-12-31T04:59:11.023Z,89.20
2018-12-31T04:59:45.738Z,88.40
2018-12-31T05:00:20.063Z,88.50
2018-12-31T05:00:54.492Z,88.60
2018-12-31T05:01:28.898Z,88.80
2018-12-31T05:02:03.362Z,88.80
2018-12-31T05:02:37.881Z,88.70
2018-12-31T05:03:12.315Z,88.80
2018-12-31T05:03:46.718Z,88.70
2018-12-31T05:04:22.132Z,88.80
2018-12-31T05:04:56.733Z,88.70
2018-12-31T05:05:31.248Z,88.70
2018-12-31T05:06:05.721Z,88.90
2018-12-31T05:06:40.207Z,88.90
2018-12-31T05:07:14.697Z,88.90
2018-12-31T05:07:49.448Z,88.90
2018-12-31T05:08:23.924Z,88.90
2018-12-31T05:08:58.320Z,89.00
2018-12-31T05:09:32.753Z,88.90
2018-12-31T05:10:07.532Z,88.90
2018-12-31T05:10:41.937Z,89.00
2018-12-31T05:11:16.363Z,88.90
2018-12-31T05:11:50.900Z,88.80
2018-12-31T05:12:25.550Z,88.80
2018-12-31T05:13:00.370Z,88.80
2018-12-31T05:13:34.770Z,88.90
2018-12-31T05:14:09.255Z,89.10
2018-12-31T05:14:43.728Z,89.20
2018-12-31T05:15:18.129Z,89.20
2018-12-31T05:15:52.746Z,89.10
2018-12-31T05:16:27.132Z,89.00
2018-12-31T05:17:01.863Z,89.00
2018-12-31T05:17:36.318Z,88.80
2018-12-31T05:18:10.747Z,88.70
2018-12-31T05:18:45.290Z,88.80
2018-12-31T05:19:19.767Z,89.10
2018-12-31T05:19:54.246Z,89.20
2018-12-31T05:20:28.820Z,89.10
2018-12-31T05:21:03.231Z,89.20
2018-12-31T05:21:38.112Z,89.10
2018-12-31T05:22:12.544Z,89.00
2018-12-31T05:22:46.974Z,89.00
2018-12-31T05:23:21.407Z,88.90
2018-12-31T05:23:56.380Z,88.90
2018-12-31T05:24:30.810Z,88.90
2018-12-31T05:25:05.322Z,88.90
2018-12-31T05:25:39.795Z,88.90
2018-12-31T05:26:14.249Z,89.10
2018-12-31T05:26:48.790Z,89.10
2018-12-31T05:27:23.188Z,89.10
2018-12-31T05:27:57.784Z,89.00
2018-12-31T05:28:32.718Z,88.90
2018-12-31T05:29:07.191Z,88.70
2018-12-31T05:29:41.615Z,88.70
2018-12-31T05:30:16.053Z,88.50
2018-12-31T05:30:50.527Z,88.60
2018-12-31T05:31:25.779Z,88.60
2018-12-31T05:32:00.223Z,88.70
2018-12-31T05:32:34.634Z,88.70
2018-12-31T05:33:09.348Z,88.70
2018-12-31T05:33:43.816Z,88.70
2018-12-31T05:34:18.482Z,88.70
2018-12-31T05:34:53.148Z,88.70
2018-12-31T05:35:27.590Z,88.70
2018-12-31T05:36:02.071Z,88.80
2018-12-31T05:36:36.523Z,88.70
2018-12-31T05:37:11.214Z,88.80
2018-12-31T05:37:45.981Z,88.90
2018-12-31T05:38:20.425Z,88.70
2018-12-31T05:38:55.008Z,88.80
2018-12-31T05:39:29.426Z,89.20
2018-12-31T05:40:03.838Z,88.50
2018-12-31T05:40:38.273Z,88.40
2018-12-31T05:41:12.691Z,88.30
2018-12-31T05:41:47.111Z,88.30
2018-12-31T05:42:21.550Z,88.30
2018-12-31T05:42:55.970Z,88.50
2018-12-31T05:43:30.594Z,88.30
2018-12-31T05:44:05.002Z,88.40
2018-12-31T05:44:39.437Z,88.40
2018-12-31T05:45:13.848Z,88.50
2018-12-31T05:45:48.285Z,89.30
2018-12-31T05:46:22.741Z,88.80
2018-12-31T05:46:57.163Z,88.50
2018-12-31T05:47:31.598Z,88.60
2018-12-31T05:48:06.042Z,88.60
2018-12-31T05:48:40.461Z,88.60
2018-12-31T05:49:14.954Z,88.60
2018-12-31T05:49:49.389Z,88.60
2018-12-31T05:50:24.095Z,88.60
2018-12-31T05:50:58.798Z,88.70
2018-12-31T05:51:33.476Z,88.60
2018-12-31T05:52:07.984Z,88.80
2018-12-31T05:52:42.728Z,88.50
2018-12-31T05:53:17.208Z,88.60
2018-12-31T05:53:51.662Z,88.50
2018-12-31T05:54:26.064Z,88.50
2018-12-31T05:55:00.762Z,88.50
2018-12-31T05:55:35.164Z,88.50
2018-12-31T05:56:09.551Z,88.40
2018-12-31T05:56:43.997Z,88.30
2018-12-31T05:57:18.452Z,88.30
2018-12-31T05:57:52.969Z,88.40
2018-12-31T05:58:27.697Z,88.50
2018-12-31T05:59:02.132Z,88.50
2018-12-31T05:59:36.578Z,88.40
2018-12-31T06:00:10.922Z,88.30
2018-12-31T06:00:45.617Z,88.40
2018-12-31T06:01:20.037Z,88.50
2018-12-31T06:01:54.655Z,88.50
2018-12-31T06:02:29.066Z,88.30
2018-12-31T06:03:03.400Z,89.20
2018-12-31T06:03:37.755Z,88.40
2018-12-31T06:04:12.140Z,88.40
2018-12-31T06:04:46.503Z,88.20
2018-12-31T06:05:20.930Z,88.10
2018-12-31T06:05:55.331Z,88.20
2018-12-31T06:06:29.761Z,88.20
2018-12-31T06:07:04.175Z,88.20
2018-12-31T06:07:38.635Z,88.40
2018-12-31T06:08:13.389Z,88.30
2018-12-31T06:08:48.047Z,88.50
2018-12-31T06:09:22.650Z,88.40
2018-12-31T06:09:57.136Z,88.40
2018-12-31T06:10:32.553Z,88.40
2018-12-31T06:11:07.019Z,88.70
2018-12-31T06:11:41.474Z,88.30
2018-12-31T06:12:15.806Z,88.20
2018-12-31T06:12:50.145Z,88.30
2018-12-31T06:13:24.645Z,88.20
2018-12-31T06:13:59.097Z,88.10
2018-12-31T06:14:33.531Z,88.20
2018-12-31T06:15:07.942Z,88.10
2018-12-31T06:15:42.390Z,88.10
2018-12-31T06:16:16.825Z,88.00
2018-12-31T06:16:51.276Z,88.00
2018-12-31T06:17:25.732Z,88.00
2018-12-31T06:18:00.183Z,88.00
2018-12-31T06:18:34.612Z,88.00
2018-12-31T06:19:09.362Z,88.00
2018-12-31T06:19:43.765Z,88.10
2018-12-31T06:20:18.212Z,88.20
2018-12-31T06:20:53.028Z,88.80
2018-12-31T06:21:27.431Z,88.10
2018-12-31T06:22:01.890Z,88.20
2018-12-31T06:22:36.258Z,88.20
2018-12-31T06:23:10.670Z,88.30
2018-12-31T06:23:45.107Z,88.20
2018-12-31T06:24:19.924Z,88.20
2018-12-31T06:24:54.315Z,88.10
2018-12-31T06:25:28.758Z,88.10
2018-12-31T06:26:03.254Z,88.70
2018-12-31T06:26:37.733Z,88.10
2018-12-31T06:27:12.198Z,88.30
2018-12-31T06:27:46.644Z,88.30
2018-12-31T06:28:20.958Z,88.50
2018-12-31T06:28:55.503Z,88.30
2018-12-31T06:29:29.950Z,88.40
2018-12-31T06:30:04.633Z,89.00
2018-12-31T06:30:39.103Z,88.30
2018-12-31T06:31:13.507Z,88.20
2018-12-31T06:31:47.975Z,88.20
2018-12-31T06:32:22.708Z,88.00
2018-12-31T06:32:57.136Z,88.70
2018-12-31T06:33:31.910Z,87.90
2018-12-31T06:34:06.391Z,88.10
2018-12-31T06:34:40.822Z,87.90
2018-12-31T06:35:15.219Z,88.10
2018-12-31T06:35:49.748Z,87.90
2018-12-31T06:36:24.182Z,88.10
2018-12-31T06:36:58.574Z,87.80
2018-12-31T06:37:32.970Z,87.80
2018-12-31T06:38:07.401Z,87.90
2018-12-31T06:38:41.856Z,88.00
2018-12-31T06:39:16.234Z,88.10
2018-12-31T06:39:50.683Z,88.20
2018-12-31T06:40:25.072Z,88.20
2018-12-31T06:40:59.573Z,88.20
2018-12-31T06:41:34.274Z,88.30
2018-12-31T06:42:08.831Z,88.50
2018-12-31T06:42:43.251Z,88.50
2018-12-31T06:43:18.047Z,88.40
2018-12-31T06:43:52.446Z,88.50
2018-12-31T06:44:26.884Z,88.50
2018-12-31T06:45:01.331Z,88.50
2018-12-31T06:45:35.713Z,88.30
2018-12-31T06:46:10.166Z,88.50
2018-12-31T06:46:44.608Z,88.40
2018-12-31T06:47:19.018Z,88.50
2018-12-31T06:47:53.785Z,88.30
2018-12-31T06:48:28.167Z,88.10
2018-12-31T06:49:02.554Z,88.20
2018-12-31T06:49:37.051Z,88.20
2018-12-31T06:50:11.471Z,88.10
2018-12-31T06:50:45.904Z,88.10
2018-12-31T06:51:20.325Z,88.20
2018-12-31T06:51:54.817Z,88.20
2018-12-31T06:52:29.220Z,88.00
2018-12-31T06:53:03.930Z,88.20
2018-12-31T06:53:38.366Z,88.20
2018-12-31T06:54:12.793Z,88.20
2018-12-31T06:54:47.253Z,88.10
2018-12-31T06:55:21.685Z,88.20
2018-12-31T06:55:56.738Z,88.30
2018-12-31T06:56:31.202Z,88.30
2018-12-31T06:57:05.653Z,88.30
2018-12-31T06:57:40.208Z,88.30
2018-12-31T06:58:14.701Z,88.30
2018-12-31T06:58:49.212Z,88.40
2018-12-31T06:59:23.692Z,88.50
2018-12-31T06:59:58.151Z,88.40
2018-12-31T07:00:32.729Z,88.30
2018-12-31T07:01:07.173Z,88.40
2018-12-31T07:01:41.644Z,88.60
2018-12-31T07:02:16.055Z,88.60
2018-12-31T07:02:50.574Z,88.40
2018-12-31T07:03:25.096Z,88.40
2018-12-31T07:03:59.596Z,88.30
2018-12-31T07:04:34.007Z,88.60
2018-12-31T07:05:08.423Z,88.50
2018-12-31T07:05:43.192Z,88.30
2018-12-31T07:06:17.927Z,88.30
2018-12-31T07:06:52.330Z,88.40
2018-12-31T07:07:26.793Z,88.40
2018-12-31T07:08:01.226Z,88.40
2018-12-31T07:08:35.635Z,88.50
2018-12-31T07:09:10.181Z,88.60
2018-12-31T07:09:44.725Z,88.40
2018-12-31T07:10:19.239Z,88.60
2018-12-31T07:10:55.973Z,88.60
2018-12-31T07:11:30.370Z,88.70
2018-12-31T07:12:04.869Z,88.60
2018-12-31T07:12:39.290Z,88.60
2018-12-31T07:13:13.694Z,88.50
2018-12-31T07:13:48.103Z,88.60
2018-12-31T07:14:22.511Z,88.70
2018-12-31T07:14:56.828Z,89.00
2018-12-31T07:15:31.254Z,88.70
2018-12-31T07:16:08.267Z,88.60
2018-12-31T07:16:42.732Z,88.40
2018-12-31T07:17:17.486Z,88.40
2018-12-31T07:17:51.931Z,88.30
2018-12-31T07:18:26.386Z,88.20
2018-12-31T07:19:00.865Z,88.30
2018-12-31T07:19:35.288Z,88.20
2018-12-31T07:20:10.085Z,88.30
2018-12-31T07:20:44.519Z,88.30
2018-12-31T07:21:18.929Z,88.40
2018-12-31T07:21:53.307Z,89.10
2018-12-31T07:22:27.697Z,88.50
2018-12-31T07:23:02.166Z,88.30
2018-12-31T07:23:36.579Z,88.50
2018-12-31T07:24:11.331Z,88.40
2018-12-31T07:24:46.044Z,88.30
2018-12-31T07:25:20.462Z,88.10
2018-12-31T07:25:54.899Z,88.30
2018-12-31T07:26:29.339Z,88.20